sensor_id;sensor_type;location;lat;lon;timestamp;temperature;humidity
21992;DHT22;11160;51.576;0.194;2022-08-23T00:01:25;24.10;76.30
21992;DHT22;11160;51.576;0.194;2022-08-23T00:03:59;24.00;76.60
21992;DHT22;11160;51.576;0.194;2022-08-23T00:06:27;24.00;76.10
21992;DHT22;11160;51.576;0.194;2022-08-23T00:08:57;24.00;76.20
21992;DHT22;11160;51.576;0.194;2022-08-23T00:11:30;24.00;76.40
21992;DHT22;11160;51.576;0.194;2022-08-23T00:14:03;24.00;76.60
21992;DHT22;11160;51.576;0.194;2022-08-23T00:16:31;24.00;76.60
21992;DHT22;11160;51.576;0.194;2022-08-23T00:19:01;24.00;76.40
21992;DHT22;11160;51.576;0.194;2022-08-23T00:21:29;23.90;76.60
21992;DHT22;11160;51.576;0.194;2022-08-23T00:23:56;24.00;76.50
21992;DHT22;11160;51.576;0.194;2022-08-23T00:26:23;24.00;76.60
21992;DHT22;11160;51.576;0.194;2022-08-23T00:28:51;23.90;76.70
21992;DHT22;11160;51.576;0.194;2022-08-23T00:31:18;24.00;76.70
21992;DHT22;11160;51.576;0.194;2022-08-23T00:33:46;24.00;76.80
21992;DHT22;11160;51.576;0.194;2022-08-23T00:36:13;23.90;76.70
21992;DHT22;11160;51.576;0.194;2022-08-23T00:38:41;23.90;76.80
21992;DHT22;11160;51.576;0.194;2022-08-23T00:41:08;23.90;76.90
21992;DHT22;11160;51.576;0.194;2022-08-23T00:43:37;23.90;77.00
21992;DHT22;11160;51.576;0.194;2022-08-23T00:46:44;23.90;77.10
21992;DHT22;11160;51.576;0.194;2022-08-23T00:53:43;23.80;77.40
21992;DHT22;11160;51.576;0.194;2022-08-23T00:56:11;23.90;78.20
21992;DHT22;11160;51.576;0.194;2022-08-23T01:01:29;23.80;78.20
21992;DHT22;11160;51.576;0.194;2022-08-23T01:03:57;23.80;77.50
21992;DHT22;11160;51.576;0.194;2022-08-23T01:06:32;23.80;77.70
21992;DHT22;11160;51.576;0.194;2022-08-23T01:09:08;23.80;77.70
21992;DHT22;11160;51.576;0.194;2022-08-23T01:11:49;23.80;78.20
21992;DHT22;11160;51.576;0.194;2022-08-23T01:14:31;23.80;78.50
21992;DHT22;11160;51.576;0.194;2022-08-23T01:17:16;23.80;78.40
21992;DHT22;11160;51.576;0.194;2022-08-23T01:19:54;23.80;78.60
21992;DHT22;11160;51.576;0.194;2022-08-23T01:25:37;23.80;78.90
21992;DHT22;11160;51.576;0.194;2022-08-23T01:28:07;23.80;78.20
21992;DHT22;11160;51.576;0.194;2022-08-23T01:30:35;23.70;78.40
21992;DHT22;11160;51.576;0.194;2022-08-23T01:33:05;23.70;78.30
21992;DHT22;11160;51.576;0.194;2022-08-23T01:35:46;23.70;78.60
21992;DHT22;11160;51.576;0.194;2022-08-23T01:38:14;23.70;79.20
21992;DHT22;11160;51.576;0.194;2022-08-23T01:40:42;23.70;79.40
21992;DHT22;11160;51.576;0.194;2022-08-23T01:43:11;23.70;78.50
21992;DHT22;11160;51.576;0.194;2022-08-23T01:45:44;23.60;78.60
21992;DHT22;11160;51.576;0.194;2022-08-23T01:48:12;23.60;78.70
21992;DHT22;11160;51.576;0.194;2022-08-23T01:50:39;23.70;78.90
21992;DHT22;11160;51.576;0.194;2022-08-23T01:53:07;23.60;78.90
21992;DHT22;11160;51.576;0.194;2022-08-23T01:55:35;23.60;78.90
21992;DHT22;11160;51.576;0.194;2022-08-23T01:58:08;23.60;78.80
21992;DHT22;11160;51.576;0.194;2022-08-23T02:00:39;23.60;79.30
21992;DHT22;11160;51.576;0.194;2022-08-23T02:03:07;23.60;79.10
21992;DHT22;11160;51.576;0.194;2022-08-23T02:05:35;23.60;79.10
21992;DHT22;11160;51.576;0.194;2022-08-23T02:08:08;23.60;79.00
21992;DHT22;11160;51.576;0.194;2022-08-23T02:10:56;23.60;79.70
21992;DHT22;11160;51.576;0.194;2022-08-23T02:13:24;23.60;79.20
21992;DHT22;11160;51.576;0.194;2022-08-23T02:15:52;23.60;79.20
21992;DHT22;11160;51.576;0.194;2022-08-23T02:18:23;23.60;79.40
21992;DHT22;11160;51.576;0.194;2022-08-23T02:20:51;23.60;79.60
21992;DHT22;11160;51.576;0.194;2022-08-23T02:23:20;23.60;79.60
21992;DHT22;11160;51.576;0.194;2022-08-23T02:25:48;23.50;79.50
21992;DHT22;11160;51.576;0.194;2022-08-23T02:28:23;23.60;80.40
21992;DHT22;11160;51.576;0.194;2022-08-23T02:30:50;23.60;80.20
21992;DHT22;11160;51.576;0.194;2022-08-23T02:33:18;23.50;79.60
21992;DHT22;11160;51.576;0.194;2022-08-23T02:35:46;23.60;79.80
21992;DHT22;11160;51.576;0.194;2022-08-23T02:38:15;23.50;79.70
21992;DHT22;11160;51.576;0.194;2022-08-23T02:40:44;23.50;79.80
21992;DHT22;11160;51.576;0.194;2022-08-23T02:43:11;23.50;79.90
21992;DHT22;11160;51.576;0.194;2022-08-23T02:45:39;23.50;79.80
21992;DHT22;11160;51.576;0.194;2022-08-23T02:48:08;23.50;79.90
21992;DHT22;11160;51.576;0.194;2022-08-23T02:50:50;23.50;80.00
21992;DHT22;11160;51.576;0.194;2022-08-23T02:53:17;23.50;80.00
21992;DHT22;11160;51.576;0.194;2022-08-23T02:55:46;23.50;80.20
21992;DHT22;11160;51.576;0.194;2022-08-23T02:58:13;23.40;80.10
21992;DHT22;11160;51.576;0.194;2022-08-23T03:00:40;23.40;80.20
21992;DHT22;11160;51.576;0.194;2022-08-23T03:03:07;23.50;80.30
21992;DHT22;11160;51.576;0.194;2022-08-23T03:05:34;23.50;80.30
21992;DHT22;11160;51.576;0.194;2022-08-23T03:08:07;23.40;80.30
21992;DHT22;11160;51.576;0.194;2022-08-23T03:10:48;23.40;80.90
21992;DHT22;11160;51.576;0.194;2022-08-23T03:13:16;23.40;80.80
21992;DHT22;11160;51.576;0.194;2022-08-23T03:15:44;23.40;80.40
21992;DHT22;11160;51.576;0.194;2022-08-23T03:18:33;23.40;80.60
21992;DHT22;11160;51.576;0.194;2022-08-23T03:21:01;23.40;81.70
21992;DHT22;11160;51.576;0.194;2022-08-23T03:23:28;23.40;80.60
21992;DHT22;11160;51.576;0.194;2022-08-23T03:25:59;23.40;80.70
21992;DHT22;11160;51.576;0.194;2022-08-23T03:28:31;23.40;81.20
21992;DHT22;11160;51.576;0.194;2022-08-23T03:30:59;23.40;81.10
21992;DHT22;11160;51.576;0.194;2022-08-23T03:33:27;23.40;80.80
21992;DHT22;11160;51.576;0.194;2022-08-23T03:36:05;23.40;80.90
21992;DHT22;11160;51.576;0.194;2022-08-23T03:38:51;23.40;81.50
21992;DHT22;11160;51.576;0.194;2022-08-23T03:41:19;23.40;81.90
21992;DHT22;11160;51.576;0.194;2022-08-23T03:43:46;23.40;81.20
21992;DHT22;11160;51.576;0.194;2022-08-23T03:46:13;23.30;81.20
21992;DHT22;11160;51.576;0.194;2022-08-23T03:48:56;23.30;81.10
21992;DHT22;11160;51.576;0.194;2022-08-23T03:51:26;23.30;81.30
21992;DHT22;11160;51.576;0.194;2022-08-23T03:53:56;23.30;81.30
21992;DHT22;11160;51.576;0.194;2022-08-23T03:56:30;23.30;81.30
21992;DHT22;11160;51.576;0.194;2022-08-23T03:59:23;23.30;81.90
21992;DHT22;11160;51.576;0.194;2022-08-23T04:01:50;23.30;82.50
21992;DHT22;11160;51.576;0.194;2022-08-23T04:04:17;23.30;81.50
21992;DHT22;11160;51.576;0.194;2022-08-23T04:07:08;23.30;81.50
21992;DHT22;11160;51.576;0.194;2022-08-23T04:09:38;23.30;81.80
21992;DHT22;11160;51.576;0.194;2022-08-23T04:12:06;23.30;82.00
21992;DHT22;11160;51.576;0.194;2022-08-23T04:14:44;23.30;81.80
21992;DHT22;11160;51.576;0.194;2022-08-23T04:17:13;23.30;81.80
21992;DHT22;11160;51.576;0.194;2022-08-23T04:19:41;23.30;81.90
21992;DHT22;11160;51.576;0.194;2022-08-23T04:22:13;23.30;81.90
21992;DHT22;11160;51.576;0.194;2022-08-23T04:24:41;23.20;82.30
21992;DHT22;11160;51.576;0.194;2022-08-23T04:27:09;23.30;82.00
21992;DHT22;11160;51.576;0.194;2022-08-23T04:29:36;23.20;82.10
21992;DHT22;11160;51.576;0.194;2022-08-23T04:32:08;23.20;82.10
21992;DHT22;11160;51.576;0.194;2022-08-23T04:34:38;23.20;82.20
21992;DHT22;11160;51.576;0.194;2022-08-23T04:37:06;23.20;82.00
21992;DHT22;11160;51.576;0.194;2022-08-23T04:39:36;23.20;82.20
21992;DHT22;11160;51.576;0.194;2022-08-23T04:42:24;23.20;82.20
21992;DHT22;11160;51.576;0.194;2022-08-23T04:44:52;23.20;82.30
21992;DHT22;11160;51.576;0.194;2022-08-23T04:47:19;23.20;82.40
21992;DHT22;11160;51.576;0.194;2022-08-23T04:49:47;23.20;82.40
21992;DHT22;11160;51.576;0.194;2022-08-23T04:52:15;23.20;82.50
21992;DHT22;11160;51.576;0.194;2022-08-23T04:54:46;23.20;82.40
21992;DHT22;11160;51.576;0.194;2022-08-23T04:57:43;23.20;82.60
21992;DHT22;11160;51.576;0.194;2022-08-23T05:00:16;23.20;82.50
21992;DHT22;11160;51.576;0.194;2022-08-23T05:02:51;23.20;82.60
21992;DHT22;11160;51.576;0.194;2022-08-23T05:05:19;23.20;82.70
21992;DHT22;11160;51.576;0.194;2022-08-23T05:07:46;23.20;82.70
21992;DHT22;11160;51.576;0.194;2022-08-23T05:10:15;23.20;82.70
21992;DHT22;11160;51.576;0.194;2022-08-23T05:12:49;23.20;83.00
21992;DHT22;11160;51.576;0.194;2022-08-23T05:15:18;23.20;82.90
21992;DHT22;11160;51.576;0.194;2022-08-23T05:17:50;23.20;83.00
21992;DHT22;11160;51.576;0.194;2022-08-23T05:20:18;23.20;83.00
21992;DHT22;11160;51.576;0.194;2022-08-23T05:22:45;23.20;83.90
21992;DHT22;11160;51.576;0.194;2022-08-23T05:25:29;23.20;83.20
21992;DHT22;11160;51.576;0.194;2022-08-23T05:28:30;23.10;83.20
21992;DHT22;11160;51.576;0.194;2022-08-23T05:31:08;23.20;83.80
21992;DHT22;11160;51.576;0.194;2022-08-23T05:33:52;23.20;84.00
21992;DHT22;11160;51.576;0.194;2022-08-23T05:36:37;23.20;83.50
21992;DHT22;11160;51.576;0.194;2022-08-23T05:39:25;23.10;83.40
21992;DHT22;11160;51.576;0.194;2022-08-23T05:42:09;23.10;83.50
21992;DHT22;11160;51.576;0.194;2022-08-23T05:44:36;23.20;83.80
21992;DHT22;11160;51.576;0.194;2022-08-23T05:47:09;23.20;83.90
21992;DHT22;11160;51.576;0.194;2022-08-23T05:49:51;23.20;84.00
21992;DHT22;11160;51.576;0.194;2022-08-23T05:52:19;23.10;83.90
21992;DHT22;11160;51.576;0.194;2022-08-23T05:54:46;23.20;84.00
21992;DHT22;11160;51.576;0.194;2022-08-23T05:57:45;23.10;84.00
21992;DHT22;11160;51.576;0.194;2022-08-23T06:00:13;23.20;84.10
21992;DHT22;11160;51.576;0.194;2022-08-23T06:02:56;23.10;84.20
21992;DHT22;11160;51.576;0.194;2022-08-23T06:05:23;23.20;84.30
21992;DHT22;11160;51.576;0.194;2022-08-23T06:07:51;23.20;84.40
21992;DHT22;11160;51.576;0.194;2022-08-23T06:10:21;23.20;84.50
21992;DHT22;11160;51.576;0.194;2022-08-23T06:13:11;23.20;84.50
21992;DHT22;11160;51.576;0.194;2022-08-23T06:15:42;23.10;85.10
21992;DHT22;11160;51.576;0.194;2022-08-23T06:18:30;23.20;84.90
21992;DHT22;11160;51.576;0.194;2022-08-23T06:21:11;23.20;85.60
21992;DHT22;11160;51.576;0.194;2022-08-23T06:23:42;23.10;85.70
21992;DHT22;11160;51.576;0.194;2022-08-23T06:26:15;23.10;84.60
21992;DHT22;11160;51.576;0.194;2022-08-23T06:32:01;23.10;85.90
21992;DHT22;11160;51.576;0.194;2022-08-23T06:34:34;23.10;85.10
21992;DHT22;11160;51.576;0.194;2022-08-23T06:37:30;23.10;85.20
21992;DHT22;11160;51.576;0.194;2022-08-23T06:40:06;23.10;85.00
21992;DHT22;11160;51.576;0.194;2022-08-23T06:42:54;23.10;85.20
21992;DHT22;11160;51.576;0.194;2022-08-23T06:45:26;23.10;85.20
21992;DHT22;11160;51.576;0.194;2022-08-23T06:48:03;23.10;85.30
21992;DHT22;11160;51.576;0.194;2022-08-23T06:50:31;23.20;85.60
21992;DHT22;11160;51.576;0.194;2022-08-23T06:53:16;23.20;85.40
21992;DHT22;11160;51.576;0.194;2022-08-23T06:55:58;23.20;85.30
21992;DHT22;11160;51.576;0.194;2022-08-23T06:58:46;23.20;85.20
21992;DHT22;11160;51.576;0.194;2022-08-23T07:04:36;23.20;85.50
21992;DHT22;11160;51.576;0.194;2022-08-23T07:07:07;23.20;85.20
21992;DHT22;11160;51.576;0.194;2022-08-23T07:09:40;23.20;85.30
21992;DHT22;11160;51.576;0.194;2022-08-23T07:12:07;23.20;85.40
21992;DHT22;11160;51.576;0.194;2022-08-23T07:14:37;23.30;84.70
21992;DHT22;11160;51.576;0.194;2022-08-23T07:17:04;23.30;84.70
21992;DHT22;11160;51.576;0.194;2022-08-23T07:23:06;23.30;84.10
21992;DHT22;11160;51.576;0.194;2022-08-23T07:25:33;23.30;84.20
21992;DHT22;11160;51.576;0.194;2022-08-23T07:28:04;23.40;84.60
21992;DHT22;11160;51.576;0.194;2022-08-23T07:30:37;23.40;84.50
21992;DHT22;11160;51.576;0.194;2022-08-23T07:33:10;23.40;84.90
21992;DHT22;11160;51.576;0.194;2022-08-23T07:35:57;23.50;87.60
21992;DHT22;11160;51.576;0.194;2022-08-23T07:38:25;23.50;89.20
21992;DHT22;11160;51.576;0.194;2022-08-23T07:40:57;23.50;90.70
21992;DHT22;11160;51.576;0.194;2022-08-23T07:43:24;23.60;91.30
21992;DHT22;11160;51.576;0.194;2022-08-23T07:45:52;23.60;92.20
21992;DHT22;11160;51.576;0.194;2022-08-23T07:48:19;23.60;92.60
21992;DHT22;11160;51.576;0.194;2022-08-23T07:51:16;23.50;93.40
21992;DHT22;11160;51.576;0.194;2022-08-23T07:53:45;23.50;93.30
21992;DHT22;11160;51.576;0.194;2022-08-23T07:56:16;23.60;93.50
21992;DHT22;11160;51.576;0.194;2022-08-23T07:59:03;23.60;93.80
21992;DHT22;11160;51.576;0.194;2022-08-23T08:01:50;23.70;93.90
21992;DHT22;11160;51.576;0.194;2022-08-23T08:04:17;23.70;93.90
21992;DHT22;11160;51.576;0.194;2022-08-23T08:06:48;23.70;93.70
21992;DHT22;11160;51.576;0.194;2022-08-23T08:09:38;23.80;93.40
21992;DHT22;11160;51.576;0.194;2022-08-23T08:12:06;23.80;93.20
21992;DHT22;11160;51.576;0.194;2022-08-23T08:14:35;23.90;92.90
21992;DHT22;11160;51.576;0.194;2022-08-23T08:17:03;23.90;92.90
21992;DHT22;11160;51.576;0.194;2022-08-23T08:19:45;23.90;92.80
21992;DHT22;11160;51.576;0.194;2022-08-23T08:22:31;23.90;92.80
21992;DHT22;11160;51.576;0.194;2022-08-23T08:25:32;23.90;92.70
21992;DHT22;11160;51.576;0.194;2022-08-23T08:28:03;24.00;92.30
21992;DHT22;11160;51.576;0.194;2022-08-23T08:30:30;24.00;92.20
21992;DHT22;11160;51.576;0.194;2022-08-23T08:32:59;24.10;92.10
21992;DHT22;11160;51.576;0.194;2022-08-23T08:35:26;24.10;92.00
21992;DHT22;11160;51.576;0.194;2022-08-23T08:37:55;24.20;91.90
21992;DHT22;11160;51.576;0.194;2022-08-23T08:40:30;24.30;91.80
21992;DHT22;11160;51.576;0.194;2022-08-23T08:43:40;24.30;91.50
21992;DHT22;11160;51.576;0.194;2022-08-23T08:46:19;24.30;90.90
21992;DHT22;11160;51.576;0.194;2022-08-23T08:48:56;24.30;91.00
21992;DHT22;11160;51.576;0.194;2022-08-23T08:51:44;24.30;90.80
21992;DHT22;11160;51.576;0.194;2022-08-23T08:54:18;24.30;90.50
21992;DHT22;11160;51.576;0.194;2022-08-23T08:56:51;24.30;90.60
21992;DHT22;11160;51.576;0.194;2022-08-23T08:59:59;24.30;90.50
21992;DHT22;11160;51.576;0.194;2022-08-23T09:02:32;24.20;90.00
21992;DHT22;11160;51.576;0.194;2022-08-23T09:05:13;24.20;90.00
21992;DHT22;11160;51.576;0.194;2022-08-23T09:07:48;24.30;89.50
21992;DHT22;11160;51.576;0.194;2022-08-23T09:18:55;24.50;89.10
21992;DHT22;11160;51.576;0.194;2022-08-23T09:21:23;24.60;87.70
21992;DHT22;11160;51.576;0.194;2022-08-23T09:23:54;24.70;87.60
21992;DHT22;11160;51.576;0.194;2022-08-23T09:26:48;24.70;86.50
21992;DHT22;11160;51.576;0.194;2022-08-23T09:32:31;24.80;83.00
21992;DHT22;11160;51.576;0.194;2022-08-23T09:40:37;24.80;82.80
21992;DHT22;11160;51.576;0.194;2022-08-23T09:43:18;24.70;83.40
21992;DHT22;11160;51.576;0.194;2022-08-23T09:51:20;24.90;83.90
21992;DHT22;11160;51.576;0.194;2022-08-23T09:53:51;24.90;83.70
21992;DHT22;11160;51.576;0.194;2022-08-23T09:56:31;25.00;84.00
21992;DHT22;11160;51.576;0.194;2022-08-23T09:59:00;25.10;84.40
21992;DHT22;11160;51.576;0.194;2022-08-23T10:01:38;25.10;84.10
21992;DHT22;11160;51.576;0.194;2022-08-23T10:04:20;25.10;83.60
21992;DHT22;11160;51.576;0.194;2022-08-23T10:06:50;25.20;83.60
21992;DHT22;11160;51.576;0.194;2022-08-23T10:11:55;25.30;83.00
21992;DHT22;11160;51.576;0.194;2022-08-23T10:14:24;25.30;82.20
21992;DHT22;11160;51.576;0.194;2022-08-23T10:17:25;25.30;82.10
21992;DHT22;11160;51.576;0.194;2022-08-23T10:23:05;25.40;80.80
21992;DHT22;11160;51.576;0.194;2022-08-23T10:34:05;25.50;79.90
21992;DHT22;11160;51.576;0.194;2022-08-23T10:39:17;25.50;79.90
21992;DHT22;11160;51.576;0.194;2022-08-23T10:50:04;25.80;80.30
21992;DHT22;11160;51.576;0.194;2022-08-23T10:53:06;25.80;79.50
21992;DHT22;11160;51.576;0.194;2022-08-23T10:55:43;25.90;77.30
21992;DHT22;11160;51.576;0.194;2022-08-23T10:58:49;25.90;77.50
21992;DHT22;11160;51.576;0.194;2022-08-23T11:01:36;25.90;77.70
21992;DHT22;11160;51.576;0.194;2022-08-23T11:10:11;26.00;77.10
21992;DHT22;11160;51.576;0.194;2022-08-23T11:12:56;26.00;77.00
21992;DHT22;11160;51.576;0.194;2022-08-23T11:15:38;26.00;76.90
21992;DHT22;11160;51.576;0.194;2022-08-23T11:45:38;26.60;77.10
21992;DHT22;11160;51.576;0.194;2022-08-23T11:48:17;26.80;75.70
21992;DHT22;11160;51.576;0.194;2022-08-23T11:53:54;26.90;75.30
21992;DHT22;11160;51.576;0.194;2022-08-23T12:01:49;26.90;73.50
21992;DHT22;11160;51.576;0.194;2022-08-23T12:04:41;26.90;74.40
21992;DHT22;11160;51.576;0.194;2022-08-23T12:07:13;26.90;73.70
21992;DHT22;11160;51.576;0.194;2022-08-23T12:12:29;26.80;73.70
21992;DHT22;11160;51.576;0.194;2022-08-23T12:15:10;26.80;72.90
21992;DHT22;11160;51.576;0.194;2022-08-23T12:20:10;26.70;73.60
21992;DHT22;11160;51.576;0.194;2022-08-23T12:23:13;26.70;74.00
21992;DHT22;11160;51.576;0.194;2022-08-23T12:25:41;26.70;73.60
21992;DHT22;11160;51.576;0.194;2022-08-23T12:31:09;26.80;73.40
21992;DHT22;11160;51.576;0.194;2022-08-23T12:36:57;26.80;73.80
21992;DHT22;11160;51.576;0.194;2022-08-23T12:39:30;26.80;73.90
21992;DHT22;11160;51.576;0.194;2022-08-23T12:44:32;26.80;74.50
21992;DHT22;11160;51.576;0.194;2022-08-23T12:47:13;26.90;74.10
21992;DHT22;11160;51.576;0.194;2022-08-23T12:49:41;27.00;74.00
21992;DHT22;11160;51.576;0.194;2022-08-23T12:52:24;26.90;73.90
21992;DHT22;11160;51.576;0.194;2022-08-23T12:54:51;26.90;73.90
21992;DHT22;11160;51.576;0.194;2022-08-23T12:57:35;26.90;73.90
21992;DHT22;11160;51.576;0.194;2022-08-23T13:05:44;26.90;73.90
21992;DHT22;11160;51.576;0.194;2022-08-23T13:08:17;26.80;74.00
21992;DHT22;11160;51.576;0.194;2022-08-23T13:10:53;26.80;74.00
21992;DHT22;11160;51.576;0.194;2022-08-23T13:13:24;26.80;74.10
21992;DHT22;11160;51.576;0.194;2022-08-23T13:15:57;27.00;74.30
21992;DHT22;11160;51.576;0.194;2022-08-23T13:21:17;27.80;72.90
21992;DHT22;11160;51.576;0.194;2022-08-23T13:23:45;27.80;71.80
21992;DHT22;11160;51.576;0.194;2022-08-23T13:29:08;27.60;71.60
21992;DHT22;11160;51.576;0.194;2022-08-23T13:32:01;27.60;72.50
21992;DHT22;11160;51.576;0.194;2022-08-23T13:37:29;27.60;72.60
21992;DHT22;11160;51.576;0.194;2022-08-23T13:39:59;27.60;72.00
21992;DHT22;11160;51.576;0.194;2022-08-23T13:42:35;27.60;72.40
21992;DHT22;11160;51.576;0.194;2022-08-23T13:47:54;27.60;72.70
21992;DHT22;11160;51.576;0.194;2022-08-23T13:50:25;27.80;73.20
21992;DHT22;11160;51.576;0.194;2022-08-23T13:52:53;27.90;72.80
21992;DHT22;11160;51.576;0.194;2022-08-23T13:55:46;27.80;72.40
21992;DHT22;11160;51.576;0.194;2022-08-23T13:58:27;27.80;72.60
21992;DHT22;11160;51.576;0.194;2022-08-23T14:00:56;27.70;72.60
21992;DHT22;11160;51.576;0.194;2022-08-23T14:03:27;27.60;72.80
21992;DHT22;11160;51.576;0.194;2022-08-23T14:05:55;27.50;72.90
21992;DHT22;11160;51.576;0.194;2022-08-23T14:08:23;27.60;73.20
21992;DHT22;11160;51.576;0.194;2022-08-23T14:10:50;27.90;74.30
21992;DHT22;11160;51.576;0.194;2022-08-23T14:13:19;28.20;74.30
21992;DHT22;11160;51.576;0.194;2022-08-23T14:15:50;28.50;73.80
21992;DHT22;11160;51.576;0.194;2022-08-23T14:18:24;28.60;72.60
21992;DHT22;11160;51.576;0.194;2022-08-23T14:20:52;28.60;71.70
21992;DHT22;11160;51.576;0.194;2022-08-23T14:23:19;28.50;71.50
21992;DHT22;11160;51.576;0.194;2022-08-23T14:25:49;28.30;70.90
21992;DHT22;11160;51.576;0.194;2022-08-23T14:28:17;28.30;70.80
21992;DHT22;11160;51.576;0.194;2022-08-23T14:30:45;28.10;70.90
21992;DHT22;11160;51.576;0.194;2022-08-23T14:33:13;28.00;71.10
21992;DHT22;11160;51.576;0.194;2022-08-23T14:35:40;27.90;71.80
21992;DHT22;11160;51.576;0.194;2022-08-23T14:38:07;27.90;71.50
21992;DHT22;11160;51.576;0.194;2022-08-23T14:40:35;27.80;71.70
21992;DHT22;11160;51.576;0.194;2022-08-23T14:43:03;27.70;71.90
21992;DHT22;11160;51.576;0.194;2022-08-23T14:45:31;27.70;72.20
21992;DHT22;11160;51.576;0.194;2022-08-23T14:47:58;27.70;72.40
21992;DHT22;11160;51.576;0.194;2022-08-23T14:50:26;27.60;72.60
21992;DHT22;11160;51.576;0.194;2022-08-23T14:52:54;27.60;73.00
21992;DHT22;11160;51.576;0.194;2022-08-23T14:55:21;27.50;73.20
21992;DHT22;11160;51.576;0.194;2022-08-23T14:57:51;27.50;73.50
21992;DHT22;11160;51.576;0.194;2022-08-23T15:00:18;27.50;74.00
21992;DHT22;11160;51.576;0.194;2022-08-23T15:02:46;27.50;74.10
21992;DHT22;11160;51.576;0.194;2022-08-23T15:05:14;27.50;74.50
21992;DHT22;11160;51.576;0.194;2022-08-23T15:07:42;27.50;74.60
21992;DHT22;11160;51.576;0.194;2022-08-23T15:10:11;27.50;74.50
21992;DHT22;11160;51.576;0.194;2022-08-23T15:12:59;27.50;74.40
21992;DHT22;11160;51.576;0.194;2022-08-23T15:15:47;27.50;74.40
21992;DHT22;11160;51.576;0.194;2022-08-23T15:18:15;27.50;74.20
21992;DHT22;11160;51.576;0.194;2022-08-23T15:20:43;27.40;74.10
21992;DHT22;11160;51.576;0.194;2022-08-23T15:23:11;27.40;74.00
21992;DHT22;11160;51.576;0.194;2022-08-23T15:25:41;27.40;73.90
21992;DHT22;11160;51.576;0.194;2022-08-23T15:28:10;27.40;74.00
21992;DHT22;11160;51.576;0.194;2022-08-23T15:30:40;27.40;74.10
21992;DHT22;11160;51.576;0.194;2022-08-23T15:33:07;27.40;74.30
21992;DHT22;11160;51.576;0.194;2022-08-23T15:35:48;27.40;74.30
21992;DHT22;11160;51.576;0.194;2022-08-23T15:38:18;27.40;74.40
21992;DHT22;11160;51.576;0.194;2022-08-23T15:40:51;27.40;74.40
21992;DHT22;11160;51.576;0.194;2022-08-23T15:43:20;27.40;74.40
21992;DHT22;11160;51.576;0.194;2022-08-23T15:45:50;27.30;74.10
21992;DHT22;11160;51.576;0.194;2022-08-23T15:48:20;27.30;74.20
21992;DHT22;11160;51.576;0.194;2022-08-23T15:50:48;27.30;74.40
21992;DHT22;11160;51.576;0.194;2022-08-23T15:53:16;27.30;74.40
21992;DHT22;11160;51.576;0.194;2022-08-23T15:55:44;27.30;74.60
21992;DHT22;11160;51.576;0.194;2022-08-23T15:58:20;27.30;74.70
21992;DHT22;11160;51.576;0.194;2022-08-23T16:00:48;27.20;74.30
21992;DHT22;11160;51.576;0.194;2022-08-23T16:03:17;27.30;74.50
21992;DHT22;11160;51.576;0.194;2022-08-23T16:05:50;27.20;74.50
21992;DHT22;11160;51.576;0.194;2022-08-23T16:08:28;27.20;74.80
21992;DHT22;11160;51.576;0.194;2022-08-23T16:10:57;27.20;74.70
21992;DHT22;11160;51.576;0.194;2022-08-23T16:13:25;27.20;74.70
21992;DHT22;11160;51.576;0.194;2022-08-23T16:15:52;27.20;74.60
21992;DHT22;11160;51.576;0.194;2022-08-23T16:18:19;27.20;74.50
21992;DHT22;11160;51.576;0.194;2022-08-23T16:20:48;27.20;74.50
21992;DHT22;11160;51.576;0.194;2022-08-23T16:23:20;27.20;74.70
21992;DHT22;11160;51.576;0.194;2022-08-23T16:25:47;27.20;74.40
21992;DHT22;11160;51.576;0.194;2022-08-23T16:28:14;27.20;74.60
21992;DHT22;11160;51.576;0.194;2022-08-23T16:30:41;27.20;74.60
21992;DHT22;11160;51.576;0.194;2022-08-23T16:33:09;27.20;74.50
21992;DHT22;11160;51.576;0.194;2022-08-23T16:35:36;27.20;74.50
21992;DHT22;11160;51.576;0.194;2022-08-23T16:38:03;27.20;74.20
21992;DHT22;11160;51.576;0.194;2022-08-23T16:40:30;27.10;74.40
21992;DHT22;11160;51.576;0.194;2022-08-23T16:42:58;27.10;74.40
21992;DHT22;11160;51.576;0.194;2022-08-23T16:45:26;27.10;74.80
21992;DHT22;11160;51.576;0.194;2022-08-23T16:47:54;27.20;75.00
21992;DHT22;11160;51.576;0.194;2022-08-23T16:50:21;27.20;74.90
21992;DHT22;11160;51.576;0.194;2022-08-23T16:52:48;27.20;75.10
21992;DHT22;11160;51.576;0.194;2022-08-23T16:55:15;27.30;75.20
21992;DHT22;11160;51.576;0.194;2022-08-23T16:57:43;27.20;75.10
21992;DHT22;11160;51.576;0.194;2022-08-23T17:00:10;27.20;75.10
21992;DHT22;11160;51.576;0.194;2022-08-23T17:02:40;27.30;75.20
21992;DHT22;11160;51.576;0.194;2022-08-23T17:05:10;27.20;75.20
21992;DHT22;11160;51.576;0.194;2022-08-23T17:07:38;27.20;75.20
21992;DHT22;11160;51.576;0.194;2022-08-23T17:10:07;27.20;75.60
21992;DHT22;11160;51.576;0.194;2022-08-23T17:12:38;27.20;75.30
21992;DHT22;11160;51.576;0.194;2022-08-23T17:15:08;27.20;75.30
21992;DHT22;11160;51.576;0.194;2022-08-23T17:17:36;27.20;75.40
21992;DHT22;11160;51.576;0.194;2022-08-23T17:20:05;27.20;75.50
21992;DHT22;11160;51.576;0.194;2022-08-23T17:22:34;27.20;75.60
21992;DHT22;11160;51.576;0.194;2022-08-23T17:25:02;27.20;75.60
21992;DHT22;11160;51.576;0.194;2022-08-23T17:27:31;27.20;75.70
21992;DHT22;11160;51.576;0.194;2022-08-23T17:29:59;27.10;75.70
21992;DHT22;11160;51.576;0.194;2022-08-23T17:32:26;27.20;75.90
21992;DHT22;11160;51.576;0.194;2022-08-23T17:34:54;27.20;76.00
21992;DHT22;11160;51.576;0.194;2022-08-23T17:37:22;27.10;75.90
21992;DHT22;11160;51.576;0.194;2022-08-23T17:39:49;27.20;76.80
21992;DHT22;11160;51.576;0.194;2022-08-23T17:42:19;27.10;76.10
21992;DHT22;11160;51.576;0.194;2022-08-23T17:44:47;27.10;76.10
21992;DHT22;11160;51.576;0.194;2022-08-23T17:47:15;27.20;76.30
21992;DHT22;11160;51.576;0.194;2022-08-23T17:49:44;27.10;76.30
21992;DHT22;11160;51.576;0.194;2022-08-23T17:52:11;27.10;76.40
21992;DHT22;11160;51.576;0.194;2022-08-23T17:54:39;27.10;76.50
21992;DHT22;11160;51.576;0.194;2022-08-23T17:57:08;27.10;76.50
21992;DHT22;11160;51.576;0.194;2022-08-23T17:59:36;27.10;76.60
21992;DHT22;11160;51.576;0.194;2022-08-23T18:02:04;27.10;76.60
21992;DHT22;11160;51.576;0.194;2022-08-23T18:04:32;27.10;76.70
21992;DHT22;11160;51.576;0.194;2022-08-23T18:07:00;27.10;76.70
21992;DHT22;11160;51.576;0.194;2022-08-23T18:09:28;27.00;77.10
21992;DHT22;11160;51.576;0.194;2022-08-23T18:11:55;27.00;77.20
21992;DHT22;11160;51.576;0.194;2022-08-23T18:14:23;26.90;77.60
21992;DHT22;11160;51.576;0.194;2022-08-23T18:16:50;26.90;77.90
21992;DHT22;11160;51.576;0.194;2022-08-23T18:19:17;26.80;78.20
21992;DHT22;11160;51.576;0.194;2022-08-23T18:21:44;26.80;78.50
21992;DHT22;11160;51.576;0.194;2022-08-23T18:24:12;26.70;78.90
21992;DHT22;11160;51.576;0.194;2022-08-23T18:26:39;26.70;79.30